createdAt,value
2019-04-23T00:00:20.450Z,12.91
2019-04-23T00:02:18.519Z,12.88
2019-04-23T00:03:20.310Z,12.90
2019-04-23T00:04:18.111Z,12.76
2019-04-23T00:05:33.176Z,12.73
2019-04-23T00:08:44.866Z,12.83
2019-04-23T00:10:26.172Z,12.78
2019-04-23T00:11:26.934Z,12.78
2019-04-23T00:12:31.405Z,12.75
2019-04-23T00:13:24.232Z,12.69
2019-04-23T00:15:23.295Z,12.63
2019-04-23T00:17:26.951Z,12.58
2019-04-23T00:18:32.249Z,12.58
2019-04-23T00:19:26.184Z,12.53
2019-04-23T00:20:23.546Z,12.55
2019-04-23T00:21:23.579Z,12.53
2019-04-23T00:22:26.863Z,12.54
2019-04-23T00:23:17.151Z,12.54
2019-04-23T00:24:38.431Z,12.51
2019-04-23T00:26:30.550Z,12.50
2019-04-23T00:29:32.626Z,12.51
2019-04-23T00:30:32.232Z,12.39
2019-04-23T00:32:28.628Z,12.39
2019-04-23T00:34:26.853Z,12.36
2019-04-23T00:35:23.205Z,12.38
2019-04-23T00:36:27.172Z,12.38
2019-04-23T00:37:27.243Z,12.36
2019-04-23T00:39:24.498Z,12.40
2019-04-23T00:40:20.302Z,12.38
2019-04-23T00:41:17.801Z,12.38
2019-04-23T00:42:20.261Z,12.42
2019-04-23T00:43:22.343Z,12.40
2019-04-23T00:44:26.887Z,12.39
2019-04-23T00:45:28.441Z,12.39
2019-04-23T00:46:22.305Z,12.36
2019-04-23T00:47:25.772Z,12.40
2019-04-23T00:48:31.139Z,12.42
2019-04-23T00:49:29.096Z,12.43
2019-04-23T00:50:24.832Z,12.53
2019-04-23T00:51:16.756Z,12.43
2019-04-23T00:52:24.039Z,12.40
2019-04-23T00:54:17.847Z,12.30
2019-04-23T00:55:35.175Z,12.38
2019-04-23T00:57:24.250Z,12.39
2019-04-23T00:58:43.239Z,12.36
2019-04-23T00:59:24.513Z,12.35
2019-04-23T01:00:26.029Z,12.39
2019-04-23T01:01:18.560Z,12.32
2019-04-23T01:02:22.969Z,12.20
2019-04-23T01:03:17.246Z,12.28
2019-04-23T01:04:18.109Z,12.30
2019-04-23T01:06:21.108Z,12.25
2019-04-23T01:07:18.875Z,12.25
2019-04-23T01:08:18.508Z,12.22
2019-04-23T01:09:14.170Z,12.24
2019-04-23T01:10:20.599Z,12.25
2019-04-23T01:11:20.612Z,12.21
2019-04-23T01:12:22.825Z,12.24
2019-04-23T01:13:22.947Z,12.22
2019-04-23T01:14:21.512Z,12.28
2019-04-23T01:16:15.069Z,12.18
2019-04-23T01:17:27.953Z,12.27
2019-04-23T01:18:32.511Z,12.20
2019-04-23T01:19:24.520Z,12.20
2019-04-23T01:20:14.169Z,12.22
2019-04-23T01:20:57.101Z,12.18
2019-04-23T01:21:57.928Z,12.20
2019-04-23T01:22:57.115Z,12.17
2019-04-23T01:24:02.594Z,12.21
2019-04-23T01:25:04.464Z,12.09
2019-04-23T01:26:16.179Z,12.09
2019-04-23T01:27:33.667Z,12.07
2019-04-23T01:28:23.626Z,12.13
2019-04-23T01:29:23.079Z,12.14
2019-04-23T01:30:23.611Z,12.07
2019-04-23T01:31:24.387Z,12.07
2019-04-23T01:32:20.970Z,12.09
2019-04-23T01:33:29.664Z,12.10
2019-04-23T01:34:28.022Z,12.00
2019-04-23T01:35:18.931Z,12.07
2019-04-23T01:36:28.042Z,12.09
2019-04-23T01:37:25.625Z,12.07
2019-04-23T01:38:30.934Z,12.07
2019-04-23T01:39:23.327Z,12.05
2019-04-23T01:40:26.599Z,12.06
2019-04-23T01:41:24.964Z,12.07
2019-04-23T01:42:29.092Z,12.05
2019-04-23T01:43:23.508Z,12.05
2019-04-23T01:44:35.336Z,12.09
2019-04-23T01:46:21.744Z,12.10
2019-04-23T01:47:24.403Z,12.10
2019-04-23T01:48:18.068Z,12.09
2019-04-23T01:49:29.486Z,12.07
2019-04-23T01:50:27.929Z,12.02
2019-04-23T01:51:27.382Z,12.03
2019-04-23T01:52:24.868Z,12.06
2019-04-23T01:54:17.745Z,12.09
2019-04-23T01:55:26.297Z,12.09
2019-04-23T01:57:28.087Z,12.03
2019-04-23T01:58:33.546Z,12.05
2019-04-23T02:00:22.503Z,12.00
2019-04-23T02:01:29.539Z,12.03
2019-04-23T02:02:29.791Z,12.02
2019-04-23T02:03:20.130Z,12.00
2019-04-23T02:04:22.954Z,11.96
2019-04-23T02:05:27.490Z,12.07
2019-04-23T02:06:19.863Z,12.06
2019-04-23T02:07:24.172Z,12.06
2019-04-23T02:08:20.841Z,12.06
2019-04-23T02:09:16.878Z,12.03
2019-04-23T02:10:29.509Z,12.10
2019-04-23T02:11:18.977Z,12.09
2019-04-23T02:12:18.076Z,12.09
2019-04-23T02:13:24.057Z,12.05
2019-04-23T02:14:20.820Z,12.09
2019-04-23T02:15:25.002Z,12.13
2019-04-23T02:16:19.356Z,12.10
2019-04-23T02:17:25.441Z,12.10
2019-04-23T02:19:26.725Z,12.06
2019-04-23T02:20:23.943Z,12.06
2019-04-23T02:21:15.362Z,12.06
2019-04-23T02:22:28.407Z,12.02
2019-04-23T02:24:22.869Z,12.02
2019-04-23T02:25:35.308Z,11.97
2019-04-23T02:26:26.358Z,12.02
2019-04-23T02:27:22.534Z,11.96
2019-04-23T02:28:19.076Z,11.97
2019-04-23T02:29:28.618Z,11.97
2019-04-23T02:30:40.902Z,11.91
2019-04-23T02:34:45.048Z,11.99
2019-04-23T02:36:29.453Z,11.88
2019-04-23T02:37:36.430Z,11.95
2019-04-23T02:38:31.829Z,11.88
2019-04-23T02:39:29.294Z,11.91
2019-04-23T02:41:26.712Z,11.91
2019-04-23T02:42:40.121Z,11.90
2019-04-23T02:44:24.180Z,11.96
2019-04-23T02:45:30.037Z,11.97
2019-04-23T02:47:25.429Z,11.95
2019-04-23T02:48:26.286Z,11.96
2019-04-23T02:49:26.937Z,11.99
2019-04-23T02:50:36.755Z,12.05
2019-04-23T02:51:27.049Z,12.06
2019-04-23T02:52:21.306Z,12.05
2019-04-23T02:54:37.558Z,12.13
2019-04-23T02:55:38.506Z,12.13
2019-04-23T02:57:24.662Z,12.13
2019-04-23T02:58:38.062Z,12.09
2019-04-23T02:59:28.567Z,12.10
2019-04-23T03:00:36.026Z,12.13
2019-04-23T03:01:31.617Z,12.06
2019-04-23T03:02:37.281Z,12.14
2019-04-23T03:03:34.564Z,12.07
2019-04-23T03:06:38.437Z,12.09
2019-04-23T03:08:45.147Z,12.22
2019-04-23T03:10:24.592Z,12.24
2019-04-23T03:11:28.149Z,12.28
2019-04-23T03:12:37.729Z,12.27
2019-04-23T03:14:24.204Z,12.20
2019-04-23T03:15:39.243Z,12.35
2019-04-23T03:16:45.450Z,12.21
2019-04-23T03:17:14.993Z,12.24
2019-04-23T03:18:39.788Z,12.33
2019-04-23T03:19:24.973Z,12.21
2019-04-23T03:21:37.291Z,12.21
2019-04-23T03:22:15.804Z,12.32
2019-04-23T03:24:33.429Z,12.24
2019-04-23T03:25:31.919Z,12.28
2019-04-23T03:26:40.804Z,12.32
2019-04-23T03:28:29.680Z,12.20
2019-04-23T03:36:13.911Z,12.13
2019-04-23T03:37:33.968Z,12.02
2019-04-23T03:39:34.650Z,11.97
2019-04-23T03:40:13.849Z,11.99
2019-04-23T03:41:27.890Z,11.91
2019-04-23T03:43:26.163Z,11.86
2019-04-23T03:44:20.565Z,11.90
2019-04-23T03:45:38.706Z,11.80
2019-04-23T03:47:24.540Z,11.80
2019-04-23T03:48:26.196Z,11.83
2019-04-23T03:49:21.888Z,11.84
2019-04-23T03:50:35.951Z,11.86
2019-04-23T03:51:28.589Z,11.80
2019-04-23T03:52:27.956Z,11.81
2019-04-23T03:54:31.950Z,11.79
2019-04-23T03:55:32.730Z,11.80
2019-04-23T03:59:29.036Z,11.83
2019-04-23T04:03:32.326Z,11.72
2019-04-23T04:04:34.980Z,11.77
2019-04-23T04:05:32.845Z,11.79
2019-04-23T04:07:29.286Z,11.69
2019-04-23T04:10:16.542Z,11.66
2019-04-23T04:12:29.467Z,11.71
2019-04-23T04:14:35.683Z,11.59
2019-04-23T04:15:43.594Z,11.58
2019-04-23T04:16:18.075Z,11.66
2019-04-23T04:17:19.799Z,11.63
2019-04-23T04:18:30.941Z,11.62
2019-04-23T04:19:31.525Z,11.63
2019-04-23T04:20:25.061Z,11.51
2019-04-23T04:25:26.058Z,11.53
2019-04-23T04:26:20.824Z,11.44
2019-04-23T04:28:28.564Z,11.50
2019-04-23T04:30:22.152Z,11.46
2019-04-23T04:31:26.174Z,11.47
2019-04-23T04:32:11.522Z,11.51
2019-04-23T04:34:43.821Z,11.50
2019-04-23T04:36:21.772Z,11.53
2019-04-23T04:39:19.738Z,11.58
2019-04-23T04:41:34.376Z,11.53
2019-04-23T04:45:30.347Z,11.66
2019-04-23T04:47:21.353Z,11.58
2019-04-23T04:48:16.262Z,11.68
2019-04-23T04:49:23.677Z,11.58
2019-04-23T04:50:35.598Z,11.56
2019-04-23T04:51:29.379Z,11.69
2019-04-23T04:52:34.988Z,11.74
2019-04-23T04:53:38.390Z,11.71
2019-04-23T04:54:22.004Z,11.66
2019-04-23T04:56:20.929Z,11.74
2019-04-23T04:58:28.549Z,11.77
2019-04-23T04:59:18.119Z,11.71
2019-04-23T05:00:30.156Z,11.72
2019-04-23T05:02:30.371Z,11.69
2019-04-23T05:03:25.844Z,11.71
2019-04-23T05:04:19.933Z,11.71
2019-04-23T05:07:27.647Z,11.71
2019-04-23T05:08:26.391Z,11.74
2019-04-23T05:09:19.514Z,11.81
2019-04-23T05:10:28.824Z,11.80
2019-04-23T05:11:28.197Z,11.71
2019-04-23T05:12:21.775Z,11.69
2019-04-23T05:13:33.765Z,11.79
2019-04-23T05:14:12.749Z,11.80
2019-04-23T05:16:18.316Z,11.84
2019-04-23T05:17:16.365Z,11.81
2019-04-23T05:18:23.625Z,11.87
2019-04-23T05:19:27.396Z,11.88
2019-04-23T05:20:19.917Z,11.79
2019-04-23T05:21:30.495Z,11.88
2019-04-23T05:22:17.072Z,11.83
2019-04-23T05:23:25.427Z,11.95
2019-04-23T05:24:14.842Z,11.90
2019-04-23T05:25:15.476Z,11.91
2019-04-23T05:26:09.252Z,11.87
2019-04-23T05:27:15.277Z,11.97
2019-04-23T05:29:29.119Z,12.10
2019-04-23T05:30:15.570Z,12.09
2019-04-23T05:31:14.300Z,12.14
2019-04-23T05:32:14.720Z,12.24
2019-04-23T05:34:08.040Z,12.40
2019-04-23T05:35:09.968Z,12.54
2019-04-23T05:36:20.158Z,12.65
2019-04-23T05:37:13.027Z,12.79
2019-04-23T05:38:32.653Z,12.90
2019-04-23T05:39:19.298Z,12.93
2019-04-23T05:40:25.478Z,13.06
2019-04-23T05:41:16.263Z,13.16
2019-04-23T05:42:10.747Z,13.29
2019-04-23T05:43:11.911Z,13.21
2019-04-23T05:44:15.468Z,13.16
2019-04-23T05:45:08.402Z,13.18
2019-04-23T05:46:17.977Z,13.26
2019-04-23T05:47:17.195Z,13.27
2019-04-23T05:48:16.227Z,13.33
2019-04-23T05:49:12.742Z,13.46
2019-04-23T05:50:21.553Z,13.33
2019-04-23T05:51:11.251Z,13.38
2019-04-23T05:52:14.495Z,13.45
2019-04-23T05:53:14.691Z,13.47
2019-04-23T05:54:12.754Z,13.49
2019-04-23T05:55:08.297Z,13.60
2019-04-23T05:56:06.539Z,13.49
2019-04-23T05:57:10.287Z,13.53
2019-04-23T05:58:16.919Z,13.64
2019-04-23T05:59:12.889Z,13.57
2019-04-23T06:00:10.689Z,13.63
2019-04-23T06:01:19.879Z,13.67
2019-04-23T06:02:05.164Z,13.72
2019-04-23T06:03:12.008Z,13.75
2019-04-23T06:04:17.701Z,13.77
2019-04-23T06:05:10.364Z,13.78
2019-04-23T06:06:18.038Z,13.89
2019-04-23T06:07:21.842Z,13.85
2019-04-23T06:08:16.274Z,13.95
2019-04-23T06:11:10.496Z,14.04
2019-04-23T06:12:12.393Z,14.15
2019-04-23T06:13:12.271Z,14.04
2019-04-23T06:14:16.984Z,14.10
2019-04-23T06:16:16.356Z,14.25
2019-04-23T06:17:09.615Z,14.37
2019-04-23T06:19:15.217Z,14.48
2019-04-23T06:20:09.342Z,14.44
2019-04-23T06:21:12.240Z,14.56
2019-04-23T06:22:17.289Z,14.50
2019-04-23T06:23:15.348Z,14.69
2019-04-23T06:24:17.079Z,14.74
2019-04-23T06:25:16.421Z,14.85
2019-04-23T06:28:22.462Z,15.00
2019-04-23T06:29:15.719Z,14.91
2019-04-23T06:30:08.349Z,14.95
2019-04-23T06:31:07.911Z,14.99
2019-04-23T06:32:06.025Z,14.97
2019-04-23T06:33:17.492Z,15.12
2019-04-23T06:34:14.062Z,15.12
2019-04-23T06:35:09.100Z,15.19
2019-04-23T06:38:34.525Z,15.33
2019-04-23T06:39:00.217Z,15.32
2019-04-23T06:40:08.320Z,15.37
2019-04-23T06:41:09.900Z,15.43
2019-04-23T06:42:07.798Z,15.48
2019-04-23T06:43:04.777Z,15.60
2019-04-23T06:44:14.436Z,15.61
2019-04-23T06:45:21.045Z,15.58
2019-04-23T06:46:05.370Z,15.51
2019-04-23T06:47:06.656Z,15.48
2019-04-23T06:48:10.555Z,15.33
2019-04-23T06:49:10.914Z,15.35
2019-04-23T06:50:19.543Z,15.27
2019-04-23T06:51:17.989Z,15.27
2019-04-23T06:53:02.452Z,15.40
2019-04-23T06:54:03.198Z,15.35
2019-04-23T06:55:08.782Z,15.39
2019-04-23T06:56:14.324Z,15.39
2019-04-23T06:57:14.147Z,15.51
2019-04-23T06:58:12.364Z,15.46
2019-04-23T06:59:08.942Z,15.42
2019-04-23T07:00:06.273Z,15.42
2019-04-23T07:01:05.380Z,15.43
2019-04-23T07:03:09.124Z,15.60
2019-04-23T07:04:05.549Z,15.69
2019-04-23T07:05:13.955Z,15.80
2019-04-23T07:08:05.981Z,16.10
2019-04-23T07:10:07.325Z,16.02
2019-04-23T07:11:16.679Z,16.05
2019-04-23T07:12:05.370Z,15.98
2019-04-23T07:13:03.179Z,16.12
2019-04-23T07:13:58.359Z,16.06
2019-04-23T07:16:02.954Z,16.02
2019-04-23T07:17:02.399Z,16.01
2019-04-23T07:18:05.567Z,16.08
2019-04-23T07:19:09.599Z,16.17
2019-04-23T07:21:06.767Z,16.24
2019-04-23T07:22:14.824Z,16.35
2019-04-23T07:23:04.803Z,16.29
2019-04-23T07:24:05.381Z,16.21
2019-04-23T07:25:19.814Z,16.20
2019-04-23T07:26:19.447Z,16.31
2019-04-23T07:27:01.303Z,16.17
2019-04-23T07:28:06.870Z,16.16
2019-04-23T07:29:18.941Z,16.29
2019-04-23T07:30:11.595Z,16.34
2019-04-23T07:31:07.369Z,16.29
2019-04-23T07:32:05.328Z,16.39
2019-04-23T07:33:04.126Z,16.44
2019-04-23T07:35:07.079Z,16.57
2019-04-23T07:36:15.699Z,16.54
2019-04-23T07:37:08.705Z,16.66
2019-04-23T07:38:16.434Z,16.65
2019-04-23T07:39:06.105Z,16.56
2019-04-23T07:41:07.299Z,16.54
2019-04-23T07:42:09.367Z,16.59
2019-04-23T07:44:14.172Z,16.53
2019-04-23T07:45:02.102Z,16.57
2019-04-23T07:46:10.513Z,16.49
2019-04-23T07:47:20.369Z,16.43
2019-04-23T07:48:11.005Z,16.49
2019-04-23T07:49:02.905Z,16.44
2019-04-23T07:50:16.641Z,16.51
2019-04-23T07:51:00.807Z,16.54
2019-04-23T07:52:11.070Z,16.57
2019-04-23T07:54:07.548Z,16.57
2019-04-23T07:55:06.806Z,16.59
2019-04-23T07:57:12.211Z,16.57
2019-04-23T07:59:03.967Z,16.57
2019-04-23T08:00:07.565Z,16.66
2019-04-23T08:02:04.640Z,16.71
2019-04-23T08:03:14.431Z,16.87
2019-04-23T08:04:03.107Z,16.86
2019-04-23T08:05:11.688Z,16.83
2019-04-23T08:06:02.714Z,17.01
2019-04-23T08:07:08.356Z,16.89
2019-04-23T08:08:03.576Z,16.87
2019-04-23T08:09:03.589Z,16.93
2019-04-23T08:10:08.119Z,16.83
2019-04-23T08:11:25.820Z,16.99
2019-04-23T08:12:06.222Z,16.93
2019-04-23T08:13:08.764Z,16.98
2019-04-23T08:16:11.395Z,16.75
2019-04-23T08:16:58.149Z,16.71
2019-04-23T08:18:07.022Z,16.83
2019-04-23T08:18:58.535Z,16.71
2019-04-23T08:21:06.630Z,16.91
2019-04-23T08:22:12.702Z,16.83
2019-04-23T08:23:06.775Z,16.93
2019-04-23T08:24:00.296Z,16.98
2019-04-23T08:25:08.454Z,16.86
2019-04-23T08:26:13.874Z,16.93
2019-04-23T08:27:07.547Z,16.98
2019-04-23T08:28:12.091Z,16.99
2019-04-23T08:29:12.864Z,17.01
2019-04-23T08:30:00.664Z,16.93
2019-04-23T08:31:05.600Z,16.93
2019-04-23T08:32:09.094Z,16.98
2019-04-23T08:33:04.597Z,16.99
2019-04-23T08:34:17.218Z,16.90
2019-04-23T08:35:03.090Z,16.96
2019-04-23T08:36:04.037Z,17.01
2019-04-23T08:37:06.346Z,17.02
2019-04-23T08:38:12.283Z,17.14
2019-04-23T08:39:07.072Z,17.02
2019-04-23T08:41:14.219Z,16.98
2019-04-23T08:42:23.629Z,16.87
2019-04-23T08:43:08.535Z,16.87
2019-04-23T08:44:07.119Z,16.91
2019-04-23T08:45:10.717Z,16.89
2019-04-23T08:45:59.133Z,16.93
2019-04-23T08:48:09.013Z,16.91
2019-04-23T08:49:05.064Z,16.90
2019-04-23T08:50:02.208Z,17.08
2019-04-23T08:51:19.430Z,17.08
2019-04-23T08:52:07.168Z,17.06
2019-04-23T08:53:10.647Z,17.14
2019-04-23T08:54:03.052Z,17.19
2019-04-23T08:55:16.919Z,17.14
2019-04-23T08:56:15.468Z,17.14
2019-04-23T08:57:02.763Z,17.14
2019-04-23T08:58:02.231Z,17.12
2019-04-23T08:59:07.411Z,17.11
2019-04-23T09:00:18.693Z,17.14
2019-04-23T09:02:20.705Z,17.37
2019-04-23T09:03:06.137Z,17.31
2019-04-23T09:04:00.484Z,17.41
2019-04-23T09:05:09.595Z,17.41
2019-04-23T09:07:04.410Z,17.24
2019-04-23T09:08:08.279Z,17.26
2019-04-23T09:08:56.892Z,17.20
2019-04-23T09:10:07.712Z,17.17
2019-04-23T09:11:13.847Z,17.16
2019-04-23T09:11:58.099Z,17.33
2019-04-23T09:13:26.136Z,17.39
2019-04-23T09:13:56.258Z,17.33
2019-04-23T09:15:01.833Z,17.49
2019-04-23T09:17:06.862Z,17.63
2019-04-23T09:18:02.821Z,17.70
2019-04-23T09:19:03.898Z,17.79
2019-04-23T09:20:58.594Z,17.83
2019-04-23T09:22:08.657Z,17.97
2019-04-23T09:22:55.126Z,18.03
2019-04-23T09:23:59.066Z,18.09
2019-04-23T09:25:04.027Z,18.13
2019-04-23T09:25:57.765Z,18.23
2019-04-23T09:27:07.418Z,18.13
2019-04-23T09:27:59.839Z,18.19
2019-04-23T09:28:58.002Z,18.23
2019-04-23T09:30:06.992Z,18.00
2019-04-23T09:31:04.927Z,18.07
2019-04-23T09:32:59.979Z,17.98
2019-04-23T09:34:00.576Z,17.86
2019-04-23T09:35:12.927Z,17.94
2019-04-23T09:35:59.253Z,17.95
2019-04-23T09:37:04.714Z,17.83
2019-04-23T09:37:59.698Z,17.83
2019-04-23T09:39:00.137Z,17.79
2019-04-23T09:40:13.939Z,17.95
2019-04-23T09:41:15.199Z,18.00
2019-04-23T09:42:03.941Z,17.97
2019-04-23T09:43:00.971Z,17.97
2019-04-23T09:44:07.941Z,18.05
2019-04-23T09:46:06.458Z,18.19
2019-04-23T09:47:08.352Z,18.19
2019-04-23T09:50:01.715Z,18.34
2019-04-23T09:52:02.440Z,18.43
2019-04-23T09:54:04.436Z,18.53
2019-04-23T09:55:04.756Z,18.59
2019-04-23T09:55:57.497Z,18.59
2019-04-23T09:56:52.599Z,18.60
2019-04-23T09:58:02.291Z,18.67
2019-04-23T09:59:02.357Z,18.75
2019-04-23T09:59:58.166Z,18.78
2019-04-23T10:00:54.679Z,18.83
2019-04-23T10:01:49.810Z,18.73
2019-04-23T10:02:49.839Z,18.78
2019-04-23T10:03:41.668Z,18.68
2019-04-23T10:04:44.822Z,18.77
2019-04-23T10:05:39.995Z,18.92
2019-04-23T10:06:36.488Z,18.80
2019-04-23T10:07:46.294Z,18.73
2019-04-23T10:08:37.718Z,18.68
2019-04-23T10:09:32.129Z,18.67
2019-04-23T10:10:32.256Z,18.63
2019-04-23T10:11:30.617Z,18.67
2019-04-23T10:12:30.513Z,18.58
2019-04-23T10:13:31.675Z,18.60
2019-04-23T10:14:30.468Z,18.55
2019-04-23T10:15:34.974Z,18.63
2019-04-23T10:16:34.107Z,18.67
2019-04-23T10:17:31.811Z,18.80
2019-04-23T10:18:31.030Z,18.80
2019-04-23T10:19:30.758Z,18.81
2019-04-23T10:20:30.882Z,18.88
2019-04-23T10:21:31.185Z,19.04
2019-04-23T10:22:33.689Z,18.99
2019-04-23T10:23:31.456Z,19.04
2019-04-23T10:24:30.943Z,19.07
2019-04-23T10:25:30.234Z,19.12
2019-04-23T10:26:30.295Z,19.11
2019-04-23T10:27:29.770Z,18.96
2019-04-23T10:28:29.744Z,18.88
2019-04-23T10:29:30.005Z,18.78
2019-04-23T10:30:30.972Z,18.75
2019-04-23T10:31:29.580Z,18.70
2019-04-23T10:32:29.850Z,18.55
2019-04-23T10:33:29.706Z,18.63
2019-04-23T10:34:42.245Z,18.73
2019-04-23T10:35:38.704Z,18.75
2019-04-23T10:36:31.696Z,18.81
2019-04-23T10:37:36.747Z,18.75
2019-04-23T10:38:30.677Z,18.74
2019-04-23T10:39:35.297Z,18.77
2019-04-23T10:40:33.856Z,18.67
2019-04-23T10:41:30.609Z,18.78
2019-04-23T10:42:31.458Z,18.81
2019-04-23T10:43:30.910Z,18.88
2019-04-23T10:44:30.645Z,19.04
2019-04-23T10:45:50.937Z,19.12
2019-04-23T10:46:49.225Z,19.12
2019-04-23T10:48:03.612Z,19.04
2019-04-23T10:49:00.623Z,19.04
2019-04-23T10:50:00.254Z,19.15
2019-04-23T10:51:17.179Z,19.09
2019-04-23T10:51:59.833Z,19.18
2019-04-23T10:53:05.128Z,19.14
2019-04-23T10:53:52.245Z,19.16
2019-04-23T10:54:59.382Z,19.23
2019-04-23T10:56:05.833Z,19.09
2019-04-23T10:56:53.211Z,19.08
2019-04-23T10:57:54.788Z,19.07
2019-04-23T10:58:58.435Z,18.99
2019-04-23T10:59:47.208Z,18.99
2019-04-23T11:01:00.211Z,19.15
2019-04-23T11:02:16.754Z,19.11
2019-04-23T11:03:06.292Z,18.99
2019-04-23T11:04:57.691Z,18.99
2019-04-23T11:06:00.249Z,19.11
2019-04-23T11:07:12.978Z,19.05
2019-04-23T11:07:41.985Z,19.07
2019-04-23T11:08:57.833Z,19.11
2019-04-23T11:09:55.636Z,19.18
2019-04-23T11:10:58.734Z,19.34
2019-04-23T11:12:03.810Z,19.30
2019-04-23T11:13:14.185Z,19.30
2019-04-23T11:15:18.311Z,19.27
2019-04-23T11:16:15.361Z,19.18
2019-04-23T11:20:56.472Z,18.90
2019-04-23T11:22:07.990Z,18.99
2019-04-23T11:22:50.957Z,19.04
2019-04-23T11:24:02.493Z,19.12
2019-04-23T11:25:02.308Z,19.24
2019-04-23T11:25:49.065Z,19.29
2019-04-23T11:27:00.658Z,19.37
2019-04-23T11:28:16.209Z,19.42
2019-04-23T11:28:55.521Z,19.46
2019-04-23T11:30:00.299Z,19.52
2019-04-23T11:30:44.979Z,19.54
2019-04-23T11:32:31.376Z,19.36
2019-04-23T11:33:00.804Z,19.37
2019-04-23T11:33:59.501Z,19.46
2019-04-23T11:35:12.849Z,19.48
2019-04-23T11:37:07.376Z,19.55
2019-04-23T11:38:21.914Z,19.51
2019-04-23T11:40:55.322Z,19.67
2019-04-23T11:41:58.011Z,19.67
2019-04-23T11:42:57.948Z,19.67
2019-04-23T11:43:55.315Z,19.55
2019-04-23T11:44:56.312Z,19.56
2019-04-23T11:47:07.762Z,19.69
2019-04-23T11:48:26.463Z,19.70
2019-04-23T11:49:22.448Z,19.85
2019-04-23T11:50:01.616Z,19.89
2019-04-23T11:50:56.017Z,19.71
2019-04-23T11:51:28.735Z,19.84
2019-04-23T11:52:03.233Z,19.84
2019-04-23T11:53:54.262Z,19.81
2019-04-23T11:55:03.098Z,19.66
2019-04-23T11:55:55.621Z,19.66
2019-04-23T11:58:16.659Z,19.71
2019-04-23T11:58:58.338Z,19.70
2019-04-23T11:59:53.097Z,19.85
2019-04-23T12:01:02.346Z,19.82
2019-04-23T12:04:07.329Z,19.81
2019-04-23T12:05:02.378Z,19.74
2019-04-23T12:06:03.670Z,19.67
2019-04-23T12:06:55.348Z,19.70
2019-04-23T12:07:50.871Z,19.67
2019-04-23T12:08:48.866Z,19.85
2019-04-23T12:09:55.006Z,19.81
2019-04-23T12:11:35.571Z,19.94
2019-04-23T12:12:08.164Z,19.86
2019-04-23T12:12:46.023Z,19.94
2019-04-23T12:14:02.421Z,19.99
2019-04-23T12:15:11.691Z,19.99
2019-04-23T12:15:53.841Z,19.91
2019-04-23T12:17:03.932Z,19.94
2019-04-23T12:17:55.881Z,20.00
2019-04-23T12:19:04.412Z,19.96
2019-04-23T12:20:48.849Z,20.09
2019-04-23T12:24:00.852Z,19.99
2019-04-23T12:25:06.483Z,19.99
2019-04-23T12:25:58.670Z,19.96
2019-04-23T12:27:42.106Z,20.10
2019-04-23T12:29:04.137Z,20.06
2019-04-23T12:30:50.275Z,20.07
2019-04-23T12:32:02.068Z,20.06
2019-04-23T12:33:11.616Z,20.09
2019-04-23T12:35:47.171Z,20.19
2019-04-23T12:36:56.890Z,20.18
2019-04-23T12:38:52.751Z,20.19
2019-04-23T12:40:03.107Z,20.18
2019-04-23T12:41:07.133Z,20.21
2019-04-23T12:41:52.834Z,20.15
2019-04-23T12:43:51.657Z,20.17
2019-04-23T12:44:56.473Z,20.15
2019-04-23T12:45:51.970Z,20.17
2019-04-23T12:46:55.974Z,20.18
2019-04-23T12:48:59.904Z,20.22
2019-04-23T12:50:56.955Z,20.33
2019-04-23T12:52:51.947Z,20.29
2019-04-23T12:53:52.484Z,20.22
2019-04-23T12:55:43.767Z,20.22
2019-04-23T12:58:32.135Z,20.37
2019-04-23T12:58:46.467Z,20.34
2019-04-23T12:59:50.089Z,20.29
2019-04-23T13:00:58.219Z,20.36
2019-04-23T13:01:57.720Z,20.31
2019-04-23T13:02:50.712Z,20.31
2019-04-23T13:03:45.935Z,20.37
2019-04-23T13:04:52.431Z,20.31
2019-04-23T13:05:36.687Z,20.36
2019-04-23T13:06:50.879Z,20.36
2019-04-23T13:09:53.995Z,20.36
2019-04-23T13:10:47.986Z,20.37
2019-04-23T13:11:50.117Z,20.40
2019-04-23T13:13:53.506Z,20.41
2019-04-23T13:15:48.584Z,20.53
2019-04-23T13:18:49.731Z,20.62
2019-04-23T13:19:57.873Z,20.63
2019-04-23T13:20:46.825Z,20.67
2019-04-23T13:21:57.087Z,20.63
2019-04-23T13:22:54.863Z,20.67
2019-04-23T13:23:49.462Z,20.66
2019-04-23T13:24:49.662Z,20.66
2019-04-23T13:26:47.685Z,20.62
2019-04-23T13:27:53.941Z,20.59
2019-04-23T13:28:46.971Z,20.65
2019-04-23T13:29:56.854Z,20.71
2019-04-23T13:30:53.152Z,20.67
2019-04-23T13:31:49.349Z,20.69
2019-04-23T13:32:55.885Z,20.67
2019-04-23T13:33:48.585Z,20.65
2019-04-23T13:34:58.978Z,20.67
2019-04-23T13:36:01.100Z,20.71
2019-04-23T13:36:53.524Z,20.71
2019-04-23T13:37:53.009Z,20.66
2019-04-23T13:39:44.021Z,20.63
2019-04-23T13:40:57.097Z,20.75
2019-04-23T13:41:46.162Z,20.69
2019-04-23T13:42:54.435Z,20.74
2019-04-23T13:44:45.536Z,20.78
2019-04-23T13:46:49.475Z,20.77
2019-04-23T13:47:53.284Z,20.82
2019-04-23T13:48:42.032Z,20.80
2019-04-23T13:49:51.151Z,20.80
2019-04-23T13:51:50.828Z,20.87
2019-04-23T13:54:01.672Z,20.97
2019-04-23T13:55:44.347Z,20.92
2019-04-23T13:58:51.870Z,20.97
2019-04-23T13:59:48.369Z,21.00
2019-04-23T14:00:55.700Z,21.06
2019-04-23T14:01:46.598Z,21.03
2019-04-23T14:03:47.967Z,21.08
2019-04-23T14:04:54.365Z,21.14
2019-04-23T14:05:49.547Z,21.18
2019-04-23T14:06:52.042Z,21.12
2019-04-23T14:09:54.898Z,21.08
2019-04-23T14:10:44.841Z,21.21
2019-04-23T14:11:40.037Z,21.39
2019-04-23T14:12:53.429Z,21.33
2019-04-23T14:14:56.404Z,21.33
2019-04-23T14:15:53.992Z,21.27
2019-04-23T14:17:08.673Z,21.29
2019-04-23T14:18:10.772Z,21.26
2019-04-23T14:18:56.157Z,21.15
2019-04-23T14:19:47.807Z,21.15
2019-04-23T14:20:46.899Z,21.14
2019-04-23T14:21:45.924Z,21.12
2019-04-23T14:23:00.356Z,21.15
2019-04-23T14:25:59.985Z,21.11
2019-04-23T14:26:48.624Z,21.24
2019-04-23T14:28:01.267Z,21.27
2019-04-23T14:29:56.533Z,21.12
2019-04-23T14:30:53.472Z,21.14
2019-04-23T14:31:43.297Z,21.22
2019-04-23T14:32:48.711Z,21.27
2019-04-23T14:33:54.800Z,21.26
2019-04-23T14:34:58.512Z,21.29
2019-04-23T14:35:45.340Z,21.29
2019-04-23T14:36:52.109Z,21.27
2019-04-23T14:38:03.762Z,21.27
2019-04-23T14:39:06.164Z,21.30
2019-04-23T14:39:45.838Z,21.29
2019-04-23T14:40:59.325Z,21.36
2019-04-23T14:41:52.273Z,21.29
2019-04-23T14:42:56.781Z,21.33
2019-04-23T14:44:56.150Z,21.43
2019-04-23T14:46:13.729Z,21.43
2019-04-23T14:47:54.367Z,21.42
2019-04-23T14:49:58.891Z,21.42
2019-04-23T14:50:51.705Z,21.40
2019-04-23T14:52:57.956Z,21.30
2019-04-23T14:53:43.751Z,21.26
2019-04-23T14:56:44.856Z,21.33
2019-04-23T14:57:51.601Z,21.45
2019-04-23T14:58:50.718Z,21.36
2019-04-23T14:59:46.834Z,21.39
2019-04-23T15:00:54.455Z,21.35
2019-04-23T15:02:52.150Z,21.40
2019-04-23T15:03:46.874Z,21.40
2019-04-23T15:04:48.220Z,21.35
2019-04-23T15:05:59.717Z,21.36
2019-04-23T15:06:55.734Z,21.26
2019-04-23T15:07:46.652Z,21.20
2019-04-23T15:11:05.254Z,21.15
2019-04-23T15:12:47.797Z,21.05
2019-04-23T15:13:44.795Z,21.03
2019-04-23T15:14:57.487Z,21.06
2019-04-23T15:16:03.090Z,21.00
2019-04-23T15:16:44.889Z,21.02
2019-04-23T15:19:07.942Z,21.06
2019-04-23T15:20:53.421Z,21.05
2019-04-23T15:21:57.986Z,20.93
2019-04-23T15:23:13.762Z,20.99
2019-04-23T15:25:15.609Z,20.97
2019-04-23T15:27:47.810Z,20.93
2019-04-23T15:28:20.313Z,20.99
2019-04-23T15:29:30.201Z,21.02
2019-04-23T15:30:50.855Z,20.93
2019-04-23T15:33:59.004Z,20.99
2019-04-23T15:34:37.588Z,20.99
2019-04-23T15:35:55.687Z,20.99
2019-04-23T15:39:51.233Z,21.02
2019-04-23T15:40:41.832Z,20.93
2019-04-23T15:41:49.709Z,21.00
2019-04-23T15:42:52.009Z,20.93
2019-04-23T15:43:49.537Z,20.99
2019-04-23T15:44:41.903Z,20.96
2019-04-23T15:45:46.073Z,21.05
2019-04-23T15:48:58.125Z,21.00
2019-04-23T15:49:44.389Z,20.96
2019-04-23T15:50:43.447Z,20.96
2019-04-23T15:51:56.618Z,21.00
2019-04-23T15:52:56.457Z,20.96
2019-04-23T15:53:42.459Z,20.95
2019-04-23T15:54:42.942Z,20.93
2019-04-23T15:55:49.686Z,20.90
2019-04-23T15:56:50.319Z,20.92
2019-04-23T15:58:58.347Z,20.93
2019-04-23T15:59:49.728Z,20.97
2019-04-23T16:00:37.772Z,20.92
2019-04-23T16:01:37.602Z,20.97
2019-04-23T16:02:14.002Z,20.99
2019-04-23T16:03:15.564Z,20.97
2019-04-23T16:04:16.580Z,20.93